Time;durP1;ratioP1;P1;durP2;ratioP2;P2;SDS_P1;SDS_P2;PMS_P1;PMS_P2;Temp;Humidity;BMP_temperature;BMP_pressure;BME280_temperature;BME280_humidity;BME280_pressure;Samples;Min_cycle;Max_cycle;Signal;HPM_P1;HPM_P2
2021/06/08 00:01:18;;;;;;;;;;;;;;;17.45;61.17;97032.41;5038792;28;19929;-64
2021/06/08 00:03:44;;;;;;;;;;;;;;;17.45;61.16;97024.50;5042633;28;20524;-64
2021/06/08 00:06:11;;;;;;;;;;;;;;;17.44;61.13;97022.88;5040590;28;19994;-64
2021/06/08 00:08:38;;;;;;;;;;;;;;;17.44;61.44;97028.97;5042071;28;19925;-64
2021/06/08 00:11:04;;;;;;;;;;;;;;;17.45;61.33;97021.88;5036939;28;19945;-64
2021/06/08 00:13:31;;;;;;;;;;;;;;;17.43;61.34;97027.31;5040189;28;19925;-64
2021/06/08 00:15:57;;;;;;;;;;;;;;;17.44;61.20;97025.50;5041830;28;19925;-64
2021/06/08 00:18:24;;;;;;;;;;;;;;;17.44;61.45;97025.50;5037545;28;20383;-64
2021/06/08 00:20:51;;;;;;;;;;;;;;;17.44;61.32;97022.88;5040803;28;19924;-64
2021/06/08 00:23:18;;;;;;;;;;;;;;;17.44;61.33;97023.69;5041396;28;20001;-64
2021/06/08 00:25:44;;;;;;;;;;;;;;;17.45;61.34;97035.03;5041495;28;19933;-64
2021/06/08 00:28:11;;;;;;;;;;;;;;;17.46;61.25;97036.63;5040011;28;20591;-64
2021/06/08 00:30:37;;;;;;;;;;;;;;;17.44;61.24;97026.34;5039787;28;19929;-64
2021/06/08 00:33:04;;;;;;;;;;;;;;;17.44;61.30;97028.97;5043139;28;20442;-64
2021/06/08 00:35:30;;;;;;;;;;;;;;;17.44;61.36;97030.75;5040522;28;19925;-64
2021/06/08 00:37:57;;;;;;;;;;;;;;;17.45;61.32;97030.56;5041291;28;19933;-64
2021/06/08 00:40:26;;;;;;;;;;;;;;;17.43;61.21;97029.97;5036688;28;19933;-64
2021/06/08 00:42:54;;;;;;;;;;;;;;;17.44;61.39;97026.34;5037517;28;19924;-64
2021/06/08 00:45:21;;;;;;;;;;;;;;;17.45;61.44;97029.75;5038724;28;19924;-64
2021/06/08 00:47:47;;;;;;;;;;;;;;;17.44;61.35;97036.84;5040099;28;19925;-63
2021/06/08 00:50:14;;;;;;;;;;;;;;;17.43;61.37;97029.16;5040195;28;19946;-64
2021/06/08 00:52:41;;;;;;;;;;;;;;;17.44;61.34;97023.69;5041828;28;19925;-64
2021/06/08 00:55:10;;;;;;;;;;;;;;;17.44;61.43;97025.50;5039485;28;20550;-64
2021/06/08 00:57:37;;;;;;;;;;;;;;;17.42;61.30;97023.09;5039446;28;20328;-63
2021/06/08 01:00:05;;;;;;;;;;;;;;;17.44;61.20;97023.69;5036064;28;19982;-64
2021/06/08 01:02:31;;;;;;;;;;;;;;;17.43;61.42;97021.25;5043092;28;20439;-64
2021/06/08 01:05:00;;;;;;;;;;;;;;;17.45;61.34;97021.88;5042983;28;19925;-64
2021/06/08 01:07:26;;;;;;;;;;;;;;;17.44;61.27;97025.50;5039582;28;19948;-63
2021/06/08 01:09:56;;;;;;;;;;;;;;;17.45;61.11;97019.25;5040554;28;19929;-64
2021/06/08 01:12:23;;;;;;;;;;;;;;;17.46;61.18;97020.84;5044791;28;19929;-64
2021/06/08 01:14:50;;;;;;;;;;;;;;;17.44;61.35;97023.69;5044408;28;20387;-64
2021/06/08 01:17:16;;;;;;;;;;;;;;;17.45;61.21;97021.88;5041208;28;19932;-64
2021/06/08 01:19:43;;;;;;;;;;;;;;;17.43;61.47;97010.75;5045563;28;19933;-64
2021/06/08 01:22:09;;;;;;;;;;;;;;;17.44;61.48;97017.59;5044113;28;20033;-64
2021/06/08 01:24:36;;;;;;;;;;;;;;;17.43;61.35;97016.00;5042146;28;19959;-64
2021/06/08 01:27:04;;;;;;;;;;;;;;;17.41;61.50;97023.28;5044767;28;19932;-64
2021/06/08 01:29:31;;;;;;;;;;;;;;;17.42;61.45;97011.72;5046531;28;19967;-64
2021/06/08 01:31:58;;;;;;;;;;;;;;;17.42;61.40;97009.94;5044442;28;19978;-64
2021/06/08 01:34:26;;;;;;;;;;;;;;;17.43;61.57;97008.09;5045272;28;19932;-64
2021/06/08 01:36:53;;;;;;;;;;;;;;;17.38;61.66;97006.09;5039391;28;19944;-64
2021/06/08 01:39:19;;;;;;;;;;;;;;;17.43;61.52;97010.75;5040632;28;19948;-64
2021/06/08 01:41:46;;;;;;;;;;;;;;;17.41;61.39;97008.31;5047360;28;20380;-64
2021/06/08 01:44:13;;;;;;;;;;;;;;;17.42;61.54;97002.03;5041541;28;19940;-64
2021/06/08 01:46:39;;;;;;;;;;;;;;;17.43;61.49;97013.38;5044937;28;19929;-64
2021/06/08 01:49:06;;;;;;;;;;;;;;;17.43;61.43;97010.75;5043617;28;19925;-64
2021/06/08 01:51:32;;;;;;;;;;;;;;;17.40;61.38;97009.31;5045132;28;19929;-64
2021/06/08 01:54:05;;;;;;;;;;;;;;;17.42;61.58;97007.31;5045220;28;19924;-64
2021/06/08 01:56:34;;;;;;;;;;;;;;;17.41;61.28;97007.50;5041794;28;19925;-63
2021/06/08 01:59:10;;;;;;;;;;;;;;;17.41;61.53;97008.31;5040552;28;20011;-64
2021/06/08 02:01:45;;;;;;;;;;;;;;;17.39;61.47;97004.25;5041213;28;19948;-64
2021/06/08 02:04:25;;;;;;;;;;;;;;;17.41;61.40;97007.50;5041667;28;19933;-64
2021/06/08 02:07:01;;;;;;;;;;;;;;;17.40;61.46;97004.06;5043698;28;19928;-64
2021/06/08 02:09:27;;;;;;;;;;;;;;;17.41;61.51;97010.94;5042225;28;19932;-64
2021/06/08 02:12:00;;;;;;;;;;;;;;;17.43;61.50;97008.91;5040663;28;19932;-64
2021/06/08 02:14:41;;;;;;;;;;;;;;;17.40;61.37;97009.31;5041232;28;19971;-64
2021/06/08 02:17:16;;;;;;;;;;;;;;;17.40;61.47;97009.31;5043336;28;19940;-64
2021/06/08 02:19:44;;;;;;;;;;;;;;;17.42;61.54;97019.63;5043406;28;19937;-64
2021/06/08 02:22:11;;;;;;;;;;;;;;;17.41;61.36;97010.13;5038398;28;19933;-64
2021/06/08 02:24:38;;;;;;;;;;;;;;;17.40;61.45;97014.59;5043124;28;19960;-64
2021/06/08 02:27:09;;;;;;;;;;;;;;;17.41;61.68;97010.13;5042426;28;20015;-64
2021/06/08 02:29:37;;;;;;;;;;;;;;;17.41;61.59;97012.75;5038978;28;19929;-64
2021/06/08 02:32:05;;;;;;;;;;;;;;;17.41;61.47;97010.13;5041644;28;20343;-64
2021/06/08 02:34:31;;;;;;;;;;;;;;;17.40;61.60;97017.22;5042091;28;20034;-63
2021/06/08 02:36:58;;;;;;;;;;;;;;;17.38;61.48;97019.25;5042149;28;19925;-64
2021/06/08 02:39:25;;;;;;;;;;;;;;;17.39;61.69;97015.59;5039431;28;19960;-64
2021/06/08 02:41:53;;;;;;;;;;;;;;;17.40;61.53;97021.66;5040446;28;19925;-63
2021/06/08 02:44:21;;;;;;;;;;;;;;;17.40;61.61;97019.84;5042174;28;19926;-64
2021/06/08 02:46:49;;;;;;;;;;;;;;;17.40;61.57;97027.75;5043476;28;20011;-64
2021/06/08 02:49:17;;;;;;;;;;;;;;;17.42;61.30;97025.72;5038889;28;19975;-64
2021/06/08 02:51:44;;;;;;;;;;;;;;;17.39;61.33;97015.59;5041353;28;19924;-64
2021/06/08 02:54:12;;;;;;;;;;;;;;;17.38;61.65;97018.44;5042715;28;19947;-64
2021/06/08 02:56:39;;;;;;;;;;;;;;;17.39;61.64;97020.06;5041849;28;19924;-65
2021/06/08 02:59:06;;;;;;;;;;;;;;;17.39;61.47;97020.06;5038905;28;19940;-64
2021/06/08 03:01:35;;;;;;;;;;;;;;;17.40;61.66;97032.19;5036512;28;20328;-64
2021/06/08 03:04:01;;;;;;;;;;;;;;;17.40;61.56;97029.53;5039012;28;19932;-63
2021/06/08 03:06:36;;;;;;;;;;;;;;;17.41;61.58;97028.56;5035040;28;19933;-64
2021/06/08 03:09:13;;;;;;;;;;;;;;;17.43;61.62;97031.78;5040480;28;19925;-64
2021/06/08 03:11:41;;;;;;;;;;;;;;;17.44;61.33;97036.03;5040109;28;20388;-64
2021/06/08 03:14:10;;;;;;;;;;;;;;;17.44;61.24;97034.22;5040719;28;20340;-64
2021/06/08 03:16:38;;;;;;;;;;;;;;;17.45;61.28;97035.03;5041808;28;19929;-64
2021/06/08 03:19:06;;;;;;;;;;;;;;;17.44;61.47;97039.50;5039442;28;19932;-64
2021/06/08 03:21:40;;;;;;;;;;;;;;;17.43;61.44;97037.84;5042920;28;19932;-64
2021/06/08 03:24:09;;;;;;;;;;;;;;;17.44;61.35;97036.84;5039232;28;21122;-64
2021/06/08 03:26:36;;;;;;;;;;;;;;;17.44;61.39;97036.84;5040826;28;19982;-64
2021/06/08 03:29:07;;;;;;;;;;;;;;;17.45;61.30;97037.66;5040449;28;19979;-64
2021/06/08 03:31:39;;;;;;;;;;;;;;;17.44;61.40;97038.66;5043886;28;19935;-64
2021/06/08 03:34:07;;;;;;;;;;;;;;;17.45;61.26;97042.94;5036621;28;20472;-64
2021/06/08 03:36:34;;;;;;;;;;;;;;;17.45;61.47;97050.81;5043176;28;19929;-64
2021/06/08 03:39:01;;;;;;;;;;;;;;;17.42;61.46;97052.03;5040172;28;19979;-64
2021/06/08 03:41:27;;;;;;;;;;;;;;;17.43;61.46;97050.22;5039893;28;19941;-64
2021/06/08 03:43:54;;;;;;;;;;;;;;;17.44;61.30;97057.91;5039545;28;19932;-64
2021/06/08 03:46:24;;;;;;;;;;;;;;;17.46;61.34;97057.69;5040196;28;19971;-64
2021/06/08 03:48:52;;;;;;;;;;;;;;;17.45;61.24;97056.88;5041845;28;20365;-64
2021/06/08 03:51:20;;;;;;;;;;;;;;;17.46;61.48;97070.84;5038468;28;20615;-64
2021/06/08 03:53:47;;;;;;;;;;;;;;;17.45;61.24;97066.59;5041425;28;19924;-63
2021/06/08 03:56:15;;;;;;;;;;;;;;;17.44;61.44;97067.59;5040786;28;19986;-64
2021/06/08 03:58:41;;;;;;;;;;;;;;;17.43;61.53;97060.75;5039274;28;19925;-64
2021/06/08 04:01:08;;;;;;;;;;;;;;;17.44;61.49;97067.59;5038360;28;19940;-64
2021/06/08 04:03:35;;;;;;;;;;;;;;;17.43;61.44;97063.38;5038966;28;20028;-64
2021/06/08 04:06:02;;;;;;;;;;;;;;;17.44;61.42;97071.06;5043261;28;19929;-64
2021/06/08 04:08:29;;;;;;;;;;;;;;;17.44;61.56;97070.22;5043106;28;19933;-64
2021/06/08 04:10:55;;;;;;;;;;;;;;;17.43;61.51;97069.44;5039632;28;19937;-64
2021/06/08 04:13:23;;;;;;;;;;;;;;;17.43;61.36;97072.06;5039160;28;19924;-64
2021/06/08 04:15:50;;;;;;;;;;;;;;;17.44;61.35;97073.69;5039732;28;19925;-64
2021/06/08 04:18:17;;;;;;;;;;;;;;;17.44;61.38;97075.50;5041353;28;19936;-64
2021/06/08 04:20:44;;;;;;;;;;;;;;;17.44;61.46;97075.50;5038689;28;20324;-64
2021/06/08 04:23:11;;;;;;;;;;;;;;;17.44;61.34;97071.06;5033808;28;20367;-64
2021/06/08 04:25:38;;;;;;;;;;;;;;;17.45;61.34;97077.13;5042995;28;19925;-64
2021/06/08 04:28:04;;;;;;;;;;;;;;;17.44;61.52;97078.97;5041629;28;19928;-64
2021/06/08 04:30:31;;;;;;;;;;;;;;;17.43;61.46;97082.59;5039624;28;19933;-64
2021/06/08 04:32:57;;;;;;;;;;;;;;;17.45;61.27;97082.41;5038337;28;19944;-63
2021/06/08 04:35:24;;;;;;;;;;;;;;;17.42;61.59;97086.25;5042811;28;19995;-64
2021/06/08 04:37:50;;;;;;;;;;;;;;;17.38;61.51;97082.41;5040190;28;20292;-64
2021/06/08 04:40:17;;;;;;;;;;;;;;;17.37;61.60;97082.59;5037691;28;19956;-64
2021/06/08 04:42:45;;;;;;;;;;;;;;;17.35;61.78;97080.16;5043116;28;20308;-63
2021/06/08 04:45:12;;;;;;;;;;;;;;;17.38;61.66;97076.34;5039563;28;19929;-63
2021/06/08 04:47:39;;;;;;;;;;;;;;;17.34;61.79;97073.28;5048810;28;19924;-63
2021/06/08 04:50:09;;;;;;;;;;;;;;;17.33;61.95;97084.00;5043573;28;19979;-63
2021/06/08 04:52:36;;;;;;;;;;;;;;;17.33;61.70;97078.75;5043673;28;19983;-64
2021/06/08 04:55:04;;;;;;;;;;;;;;;17.32;61.69;97077.13;5044504;28;20031;-62
2021/06/08 04:57:31;;;;;;;;;;;;;;;17.30;61.82;97085.22;5045978;28;19933;-64
2021/06/08 05:00:06;;;;;;;;;;;;;;;17.33;61.65;97078.75;5042333;28;19979;-64
2021/06/08 05:02:44;;;;;;;;;;;;;;;17.35;61.76;97087.25;5044938;28;20281;-65
2021/06/08 05:05:13;;;;;;;;;;;;;;;17.34;61.79;97081.19;5045935;28;19936;-62
2021/06/08 05:07:42;;;;;;;;;;;;;;;17.35;61.82;97090.69;5048603;28;19982;-62
2021/06/08 05:10:10;;;;;;;;;;;;;;;17.35;61.75;97084.63;5045222;28;19963;-63
2021/06/08 05:12:39;;;;;;;;;;;;;;;17.35;61.74;97088.03;5038357;28;20006;-63
2021/06/08 05:15:06;;;;;;;;;;;;;;;17.35;61.67;97090.69;5042641;28;19956;-65
2021/06/08 05:17:33;;;;;;;;;;;;;;;17.38;61.62;97084.22;5044208;28;19925;-64
2021/06/08 05:20:00;;;;;;;;;;;;;;;17.39;61.61;97093.72;5039922;28;20443;-65
2021/06/08 05:22:27;;;;;;;;;;;;;;;17.39;61.61;97091.09;5042664;28;19932;-65
2021/06/08 05:24:55;;;;;;;;;;;;;;;17.38;61.62;97092.94;5044354;28;20323;-65
2021/06/08 05:27:22;;;;;;;;;;;;;;;17.38;61.67;97103.44;5046956;28;19983;-64
2021/06/08 05:29:53;;;;;;;;;;;;;;;17.36;61.79;97094.16;5042512;28;19931;-64
2021/06/08 05:32:19;;;;;;;;;;;;;;;17.39;61.54;97097.16;5041438;28;19937;-64
2021/06/08 05:34:46;;;;;;;;;;;;;;;17.36;61.66;97105.47;5042090;28;19959;-64
2021/06/08 05:37:14;;;;;;;;;;;;;;;17.39;61.55;97104.25;5040648;28;19932;-65
2021/06/08 05:39:41;;;;;;;;;;;;;;;17.41;61.60;97110.13;5042484;28;19925;-64
2021/06/08 05:42:09;;;;;;;;;;;;;;;17.38;61.75;97111.34;5042961;28;19932;-65
2021/06/08 05:44:35;;;;;;;;;;;;;;;17.38;61.65;97111.34;5044771;28;19937;-64
2021/06/08 05:47:06;;;;;;;;;;;;;;;17.40;61.66;97116.38;5043248;28;19978;-65
2021/06/08 05:49:33;;;;;;;;;;;;;;;17.37;61.53;97125.50;5044148;28;19963;-65
2021/06/08 05:52:00;;;;;;;;;;;;;;;17.38;61.72;97115.81;5041013;28;19924;-65
2021/06/08 05:54:27;;;;;;;;;;;;;;;17.38;61.58;97123.69;5045146;28;19925;-65
2021/06/08 05:56:54;;;;;;;;;;;;;;;17.37;61.63;97112.34;5042865;28;19929;-64
2021/06/08 05:59:21;;;;;;;;;;;;;;;17.38;61.57;97115.81;5042287;28;19933;-64
2021/06/08 06:01:48;;;;;;;;;;;;;;;17.40;61.66;97121.66;5044493;28;19971;-64
2021/06/08 06:04:18;;;;;;;;;;;;;;;17.38;61.56;97119.25;5043728;28;19936;-64
2021/06/08 06:06:45;;;;;;;;;;;;;;;17.38;61.55;97115.81;5042599;28;20383;-64
2021/06/08 06:09:13;;;;;;;;;;;;;;;17.38;61.75;97118.44;5033013;28;19948;-64
2021/06/08 06:11:42;;;;;;;;;;;;;;;17.39;61.50;97112.16;5034239;28;19951;-64
2021/06/08 06:14:09;;;;;;;;;;;;;;;17.42;61.37;97112.56;5043054;28;19939;-64
2021/06/08 06:16:40;;;;;;;;;;;;;;;17.42;61.36;97119.63;5043625;28;19987;-66
2021/06/08 06:19:07;;;;;;;;;;;;;;;17.39;61.34;97115.59;5041587;28;19987;-65
2021/06/08 06:21:34;;;;;;;;;;;;;;;17.41;61.44;97118.03;5041122;28;19933;-66
2021/06/08 06:24:01;;;;;;;;;;;;;;;17.42;61.48;97117.00;5041691;28;19925;-65
2021/06/08 06:26:27;;;;;;;;;;;;;;;17.38;61.49;97113.97;5041663;28;20278;-65
2021/06/08 06:28:54;;;;;;;;;;;;;;;17.41;61.35;97123.28;5042895;28;19931;-65
2021/06/08 06:31:22;;;;;;;;;;;;;;;17.40;61.64;97121.66;5044231;28;19979;-65
2021/06/08 06:33:53;;;;;;;;;;;;;;;17.41;61.56;97128.53;5042333;28;19986;-65
2021/06/08 06:36:25;;;;;;;;;;;;;;;17.36;61.71;97120.47;5045326;28;19932;-65
2021/06/08 06:38:52;;;;;;;;;;;;;;;17.37;61.60;97125.50;5036710;28;19971;-65
2021/06/08 06:41:19;;;;;;;;;;;;;;;17.37;61.57;97116.81;5040085;28;22195;-65
2021/06/08 06:43:50;;;;;;;;;;;;;;;17.37;61.57;97119.44;5036614;28;20277;-64
2021/06/08 06:46:17;;;;;;;;;;;;;;;17.39;61.53;97117.41;5039537;28;19928;-65
2021/06/08 06:48:44;;;;;;;;;;;;;;;17.36;61.68;97118.63;5043164;28;20028;-65
2021/06/08 06:51:11;;;;;;;;;;;;;;;17.38;61.43;97111.34;5043707;28;20277;-65
2021/06/08 06:53:39;;;;;;;;;;;;;;;17.38;61.51;97113.16;5044101;28;19972;-65
2021/06/08 06:56:06;;;;;;;;;;;;;;;17.39;61.60;97120.03;5040978;28;19948;-65
2021/06/08 06:58:33;;;;;;;;;;;;;;;17.38;61.59;97126.34;5041154;28;20403;-65
2021/06/08 07:01:00;;;;;;;;;;;;;;;17.39;61.54;97118.22;5035039;28;20400;-66
2021/06/08 07:03:29;;;;;;;;;;;;;;;17.42;61.48;97115.19;5039505;28;19925;-65
2021/06/08 07:05:56;;;;;;;;;;;;;;;17.39;61.64;97114.78;5041632;28;19928;-66
2021/06/08 07:08:23;;;;;;;;;;;;;;;17.38;61.64;97118.44;5040663;28;20040;-66
2021/06/08 07:10:50;;;;;;;;;;;;;;;17.39;61.54;97120.84;5036717;28;19964;-67
2021/06/08 07:13:17;;;;;;;;;;;;;;;17.40;61.65;97125.13;5038562;28;19933;-65
2021/06/08 07:15:46;;;;;;;;;;;;;;;17.39;61.60;97125.31;5037315;28;19971;-65
2021/06/08 07:18:13;;;;;;;;;;;;;;;17.40;61.52;97117.22;5038151;28;19940;-65
2021/06/08 07:20:39;;;;;;;;;;;;;;;17.38;61.57;97124.50;5042845;28;19928;-66
2021/06/08 07:23:07;;;;;;;;;;;;;;;17.38;61.74;97118.44;5038825;28;19932;-65
2021/06/08 07:25:36;;;;;;;;;;;;;;;17.36;61.76;97116.00;5040589;28;19924;-66
2021/06/08 07:28:04;;;;;;;;;;;;;;;17.38;61.55;97118.44;5036476;28;19932;-65
2021/06/08 07:30:30;;;;;;;;;;;;;;;17.38;61.63;97118.44;5038273;28;19925;-66
2021/06/08 07:33:05;;;;;;;;;;;;;;;17.39;61.64;97114.78;5037200;28;20408;-65
2021/06/08 07:35:43;;;;;;;;;;;;;;;17.36;61.54;97107.31;5035735;28;19932;-65
2021/06/08 07:38:15;;;;;;;;;;;;;;;17.39;61.62;97109.50;5037734;28;19925;-64
2021/06/08 07:40:45;;;;;;;;;;;;;;;17.37;61.76;97114.97;5036948;28;19932;-62
2021/06/08 07:43:12;;;;;;;;;;;;;;;17.38;61.69;97119.25;5040807;28;19933;-63
2021/06/08 07:45:49;;;;;;;;;;;;;;;17.39;61.62;97114.78;5040422;28;19928;-64
2021/06/08 07:48:24;;;;;;;;;;;;;;;17.40;61.60;97114.59;5042536;28;19971;-64
2021/06/08 07:50:52;;;;;;;;;;;;;;;17.38;61.52;97105.28;5040658;28;19929;-63
2021/06/08 07:53:20;;;;;;;;;;;;;;;17.37;61.81;97109.72;5041679;28;19974;-65
2021/06/08 07:55:48;;;;;;;;;;;;;;;17.39;61.40;97110.31;5038527;28;19929;-64
2021/06/08 07:58:22;;;;;;;;;;;;;;;17.38;61.59;97108.72;5040911;28;19929;-64
2021/06/08 08:00:50;;;;;;;;;;;;;;;17.38;61.71;97107.91;5041683;28;19931;-65
2021/06/08 08:03:29;;;;;;;;;;;;;;;17.40;61.47;97114.59;5041805;28;19986;-64
2021/06/08 08:06:01;;;;;;;;;;;;;;;17.39;61.64;97114.78;5039127;28;19929;-64
2021/06/08 08:08:28;;;;;;;;;;;;;;;17.39;61.46;97110.31;5037200;28;19952;-65
2021/06/08 08:10:54;;;;;;;;;;;;;;;17.40;61.62;97111.97;5040949;28;19937;-66
2021/06/08 08:13:23;;;;;;;;;;;;;;;17.41;61.59;97115.38;5038475;28;19924;-65
2021/06/08 08:16:04;;;;;;;;;;;;;;;17.41;61.44;97104.88;5042012;28;20019;-65
2021/06/08 08:18:32;;;;;;;;;;;;;;;17.41;61.62;97112.75;5042552;28;19948;-65
2021/06/08 08:20:59;;;;;;;;;;;;;;;17.38;61.59;97111.34;5037597;28;19952;-65
2021/06/08 08:23:28;;;;;;;;;;;;;;;17.39;61.87;97117.41;5040644;28;19937;-65
2021/06/08 08:25:55;;;;;;;;;;;;;;;17.40;61.62;97111.97;5040301;28;19929;-65
2021/06/08 08:28:25;;;;;;;;;;;;;;;17.40;61.73;97117.22;5037260;28;20412;-65
2021/06/08 08:30:57;;;;;;;;;;;;;;;17.40;61.48;97114.59;5039690;28;19971;-65
2021/06/08 08:33:26;;;;;;;;;;;;;;;17.41;61.56;97112.75;5038148;28;19929;-65
2021/06/08 08:35:53;;;;;;;;;;;;;;;17.39;61.53;97107.69;5038524;28;20211;-64
2021/06/08 08:38:20;;;;;;;;;;;;;;;17.38;61.53;97116.59;5040320;28;20588;-65
2021/06/08 08:40:46;;;;;;;;;;;;;;;17.41;61.52;97118.81;5041301;28;19933;-65
2021/06/08 08:43:21;;;;;;;;;;;;;;;17.38;61.62;97118.44;5039212;28;19929;-64
2021/06/08 08:45:48;;;;;;;;;;;;;;;17.38;61.55;97113.97;5042351;28;19952;-65
2021/06/08 08:48:15;;;;;;;;;;;;;;;17.39;61.62;97112.94;5036323;28;20015;-65
2021/06/08 08:50:41;;;;;;;;;;;;;;;17.42;61.55;97117.81;5030925;28;19959;-65
2021/06/08 08:53:08;;;;;;;;;;;;;;;17.42;61.73;97109.09;5034251;28;19925;-65
2021/06/08 08:55:35;;;;;;;;;;;;;;;17.42;61.52;97119.63;5040374;28;19936;-65
2021/06/08 08:58:03;;;;;;;;;;;;;;;17.40;61.49;97109.31;5035064;28;19925;-65
2021/06/08 09:00:30;;;;;;;;;;;;;;;17.45;61.40;97106.09;5038998;28;19987;-65
2021/06/08 09:02:58;;;;;;;;;;;;;;;17.42;61.69;97107.31;5035638;28;19929;-65
2021/06/08 09:05:26;;;;;;;;;;;;;;;17.43;61.42;97101.00;5035181;28;19986;-65
2021/06/08 09:07:54;;;;;;;;;;;;;;;17.41;61.56;97105.66;5033974;28;19924;-64
2021/06/08 09:10:21;;;;;;;;;;;;;;;17.43;61.50;97100.22;5035565;28;19933;-67
2021/06/08 09:12:48;;;;;;;;;;;;;;;17.41;61.43;97096.97;5033125;28;19929;-65
2021/06/08 09:15:15;;;;;;;;;;;;;;;17.42;61.44;97096.78;5029892;28;20254;-65
2021/06/08 09:17:42;;;;;;;;;;;;;;;17.43;61.43;97094.94;5032844;28;19943;-64
2021/06/08 09:20:10;;;;;;;;;;;;;;;17.42;61.55;97094.16;5032493;28;20378;-65
2021/06/08 09:22:51;;;;;;;;;;;;;;;17.42;61.39;97099.41;5033715;28;19932;-65
2021/06/08 09:25:34;;;;;;;;;;;;;;;17.43;61.47;97094.94;5030690;28;19975;-65
2021/06/08 09:28:15;;;;;;;;;;;;;;;17.39;61.56;97101.63;5033070;28;20393;-65
2021/06/08 09:30:43;;;;;;;;;;;;;;;17.42;61.81;97103.84;5033394;28;19925;-65
2021/06/08 09:33:12;;;;;;;;;;;;;;;17.40;61.56;97101.44;5036013;28;19936;-66
2021/06/08 09:35:47;;;;;;;;;;;;;;;17.42;61.66;97101.22;5034013;28;19925;-65
2021/06/08 09:38:14;;;;;;;;;;;;;;;17.41;61.58;97102.22;5039459;28;19936;-66
2021/06/08 09:40:41;;;;;;;;;;;;;;;17.39;61.57;97105.06;5039924;28;19929;-65
2021/06/08 09:43:10;;;;;;;;;;;;;;;17.41;61.61;97103.03;5040494;28;19983;-66
2021/06/08 09:45:39;;;;;;;;;;;;;;;17.44;61.48;97101.81;5037705;28;19998;-66
2021/06/08 09:48:06;;;;;;;;;;;;;;;17.42;61.59;97107.31;5038723;28;20008;-66
2021/06/08 09:50:40;;;;;;;;;;;;;;;17.43;61.58;97106.28;5039883;28;20377;-66
2021/06/08 09:53:21;;;;;;;;;;;;;;;17.42;61.42;97094.16;5041179;28;20328;-66
2021/06/08 09:55:50;;;;;;;;;;;;;;;17.43;61.49;97089.69;5043797;28;19974;-66
2021/06/08 09:58:17;;;;;;;;;;;;;;;17.43;61.55;97095.75;5042649;28;20389;-66
2021/06/08 10:01:03;;;;;;;;;;;;;;;17.43;61.42;97094.94;5040756;28;19929;-66
2021/06/08 10:03:50;;;;;;;;;;;;;;;17.42;61.44;97095.94;5036079;28;20016;-66
2021/06/08 10:06:21;;;;;;;;;;;;;;;17.43;61.65;97097.56;5041377;28;19952;-66
2021/06/08 10:08:51;;;;;;;;;;;;;;;17.42;61.58;97093.31;5038995;28;20361;-66
2021/06/08 10:11:21;;;;;;;;;;;;;;;17.42;61.45;97090.69;5039265;28;19928;-66
2021/06/08 10:13:47;;;;;;;;;;;;;;;17.44;61.42;97088.66;5038546;28;19929;-66
2021/06/08 10:16:24;;;;;;;;;;;;;;;17.44;61.76;97086.03;5042968;28;19929;-65
2021/06/08 10:18:51;;;;;;;;;;;;;;;17.41;61.62;97094.34;5038879;28;19956;-66
2021/06/08 10:21:36;;;;;;;;;;;;;;;17.40;61.63;97085.63;5032701;28;19983;-66
2021/06/08 10:24:04;;;;;;;;;;;;;;;17.42;61.47;97088.03;5035639;28;19999;-66
2021/06/08 10:26:34;;;;;;;;;;;;;;;17.42;61.61;97091.50;5039362;28;19925;-66
2021/06/08 10:29:05;;;;;;;;;;;;;;;17.42;61.56;97094.16;5043596;28;20369;-66
2021/06/08 10:31:32;;;;;;;;;;;;;;;17.43;61.53;97098.38;5037949;28;19925;-68
2021/06/08 10:33:59;;;;;;;;;;;;;;;17.42;61.47;97088.03;5042637;28;20638;-66
2021/06/08 10:36:29;;;;;;;;;;;;;;;17.44;61.56;97086.03;5039529;28;20312;-66
2021/06/08 10:38:56;;;;;;;;;;;;;;;17.42;61.67;97083.63;5031798;28;19991;-66
2021/06/08 10:41:22;;;;;;;;;;;;;;;17.41;61.83;97084.63;5039717;28;20332;-66
2021/06/08 10:43:49;;;;;;;;;;;;;;;17.43;61.51;97087.06;5035774;28;19926;-66
2021/06/08 10:46:23;;;;;;;;;;;;;;;17.42;61.58;97093.31;5037520;28;19940;-66
2021/06/08 10:48:50;;;;;;;;;;;;;;;17.43;61.66;97095.75;5042088;28;19925;-66
2021/06/08 10:51:18;;;;;;;;;;;;;;;17.44;61.69;97097.38;5047510;28;19932;-66
2021/06/08 10:53:47;;;;;;;;;;;;;;;17.46;61.55;97094.53;5044451;28;19929;-66
2021/06/08 10:56:18;;;;;;;;;;;;;;;17.54;61.14;97089.06;5037500;28;19940;-66
2021/06/08 10:58:46;;;;;;;;;;;;;;;17.54;61.20;97085.63;5041978;28;19932;-65
2021/06/08 11:01:31;;;;;;;;;;;;;;;17.51;61.36;97089.50;5040392;28;19979;-67
2021/06/08 11:03:58;;;;;;;;;;;;;;;17.52;61.13;97083.19;5043433;28;19971;-66
2021/06/08 11:06:37;;;;;;;;;;;;;;;17.53;61.16;97089.28;5042293;28;19932;-66
2021/06/08 11:09:07;;;;;;;;;;;;;;;17.55;61.23;97085.44;5044389;28;19925;-66
2021/06/08 11:11:46;;;;;;;;;;;;;;;17.54;61.11;97083.81;5036105;28;19999;-72
2021/06/08 11:14:46;;;;;;;;;;;;;;;17.55;61.11;97072.28;5047868;28;20020;-66
2021/06/08 11:17:21;;;;;;;;;;;;;;;17.55;61.08;97074.91;5046507;28;19939;-66
2021/06/08 11:19:52;;;;;;;;;;;;;;;17.56;61.06;97076.53;5037493;28;19940;-65
2021/06/08 11:22:20;;;;;;;;;;;;;;;17.56;61.17;97073.88;5052818;28;20365;-65
2021/06/08 11:24:50;;;;;;;;;;;;;;;17.58;60.89;97074.50;5042441;28;19925;-65
2021/06/08 11:27:18;;;;;;;;;;;;;;;17.58;60.96;97073.69;5035392;28;20336;-65
2021/06/08 11:29:56;;;;;;;;;;;;;;;17.57;60.98;97072.88;5039054;28;19959;-65
2021/06/08 11:32:28;;;;;;;;;;;;;;;17.57;61.22;97066.78;5037404;28;19940;-65
2021/06/08 11:35:07;;;;;;;;;;;;;;;17.58;60.98;97063.16;5039947;28;20015;-66
2021/06/08 11:37:46;;;;;;;;;;;;;;;17.59;60.96;97067.41;5036226;28;20255;-65
2021/06/08 11:40:31;;;;;;;;;;;;;;;17.59;60.99;97059.50;5038710;28;19929;-65
2021/06/08 11:42:57;;;;;;;;;;;;;;;17.59;60.96;97057.72;5034292;28;19971;-65
2021/06/08 11:45:31;;;;;;;;;;;;;;;17.59;61.08;97049.81;5035729;28;19925;-66
2021/06/08 11:47:58;;;;;;;;;;;;;;;17.56;61.04;97054.66;5039359;28;19994;-66
2021/06/08 11:50:37;;;;;;;;;;;;;;;17.57;60.96;97041.31;5035150;28;19983;-64
2021/06/08 11:53:05;;;;;;;;;;;;;;;17.59;61.19;97044.53;5038545;28;19925;-64
2021/06/08 11:55:31;;;;;;;;;;;;;;;17.60;60.83;97046.16;5041398;28;19978;-65
2021/06/08 11:57:57;;;;;;;;;;;;;;;17.60;60.76;97048.78;5034210;28;19999;-65
2021/06/08 12:00:41;;;;;;;;;;;;;;;17.62;60.92;97041.50;5036923;28;19971;-65
2021/06/08 12:03:26;;;;;;;;;;;;;;;17.62;60.75;97044.13;5039554;28;19925;-65
2021/06/08 12:05:53;;;;;;;;;;;;;;;17.61;61.00;97039.88;5041540;28;19979;-65
2021/06/08 12:08:25;;;;;;;;;;;;;;;17.65;60.66;97035.00;5038969;28;19929;-64
2021/06/08 12:10:55;;;;;;;;;;;;;;;17.64;61.02;97028.94;5036412;28;19983;-64
2021/06/08 12:13:29;;;;;;;;;;;;;;;17.64;60.86;97030.75;5041306;28;19934;-64
2021/06/08 12:15:56;;;;;;;;;;;;;;;17.64;60.90;97022.88;5044865;28;19925;-64
2021/06/08 12:18:31;;;;;;;;;;;;;;;17.65;60.69;97024.47;5034528;28;19979;-65
2021/06/08 12:21:16;;;;;;;;;;;;;;;17.66;60.73;97019.00;5037447;28;19933;-65
2021/06/08 12:23:43;;;;;;;;;;;;;;;17.67;60.60;97014.53;5040780;28;20384;-65
2021/06/08 12:26:12;;;;;;;;;;;;;;;17.65;60.77;97022.66;5039564;28;20622;-65
2021/06/08 12:28:40;;;;;;;;;;;;;;;17.65;60.75;97012.16;5045392;28;19963;-65
2021/06/08 12:31:13;;;;;;;;;;;;;;;17.67;60.67;97017.19;5041398;28;19925;-65
2021/06/08 12:33:40;;;;;;;;;;;;;;;17.65;60.76;97009.50;5042063;28;19971;-64
2021/06/08 12:36:08;;;;;;;;;;;;;;;17.66;60.99;97013.75;5032009;28;19983;-65
2021/06/08 12:38:34;;;;;;;;;;;;;;;17.67;60.75;97012.75;5046195;28;19925;-65
2021/06/08 12:41:08;;;;;;;;;;;;;;;17.66;60.84;97003.22;5041392;28;20454;-65
2021/06/08 12:43:50;;;;;;;;;;;;;;;17.66;60.73;96997.94;5035297;28;19925;-65
2021/06/08 12:46:23;;;;;;;;;;;;;;;17.66;60.79;97000.59;5042879;28;20377;-64
2021/06/08 12:49:06;;;;;;;;;;;;;;;17.67;60.74;96990.84;5037267;28;19925;-65
2021/06/08 12:51:33;;;;;;;;;;;;;;;17.68;60.83;96985.41;5037521;28;19925;-65
2021/06/08 12:53:59;;;;;;;;;;;;;;;17.68;60.62;96988.03;5039547;28;19929;-64
2021/06/08 12:56:26;;;;;;;;;;;;;;;17.70;60.58;96985.19;5040380;28;19931;-65
2021/06/08 12:58:53;;;;;;;;;;;;;;;17.67;60.81;96986.41;5040484;28;19970;-65